createdAt,value
2016-12-10T00:00:15.622Z,0
2016-12-10T00:00:56.394Z,0
2016-12-10T00:01:37.667Z,0
2016-12-10T00:02:18.459Z,0
2016-12-10T00:02:59.231Z,0
2016-12-10T00:03:39.976Z,0
2016-12-10T00:04:20.746Z,0
2016-12-10T00:05:01.486Z,0
2016-12-10T00:05:42.258Z,0
2016-12-10T00:06:23.027Z,0
2016-12-10T00:07:03.779Z,0
2016-12-10T00:07:44.553Z,0
2016-12-10T00:08:25.329Z,0
2016-12-10T00:09:06.079Z,0
2016-12-10T00:09:46.832Z,0
2016-12-10T00:10:27.596Z,0
2016-12-10T00:11:08.378Z,0
2016-12-10T00:11:49.151Z,0
2016-12-10T00:12:29.929Z,0
2016-12-10T00:13:10.686Z,0
2016-12-10T00:13:51.437Z,0
2016-12-10T00:14:32.213Z,0
2016-12-10T00:15:12.982Z,0
2016-12-10T00:15:53.738Z,0
2016-12-10T00:16:34.491Z,0
2016-12-10T00:17:15.264Z,0
2016-12-10T00:17:56.009Z,0
2016-12-10T00:18:36.771Z,0
2016-12-10T00:19:17.540Z,0
2016-12-10T00:19:58.336Z,0
2016-12-10T00:20:39.077Z,0
2016-12-10T00:21:19.833Z,0
2016-12-10T00:22:00.601Z,0
2016-12-10T00:22:41.353Z,0
2016-12-10T00:23:22.112Z,0
2016-12-10T00:24:02.892Z,0
2016-12-10T00:24:43.639Z,0
2016-12-10T00:25:24.462Z,0
2016-12-10T00:26:05.220Z,0
2016-12-10T00:26:45.993Z,0
2016-12-10T00:27:26.781Z,0
2016-12-10T00:28:07.533Z,0
2016-12-10T00:28:48.311Z,0
2016-12-10T00:29:29.942Z,0
2016-12-10T00:30:09.819Z,0
2016-12-10T00:30:50.591Z,0
2016-12-10T00:31:31.350Z,0
2016-12-10T00:32:12.124Z,0
2016-12-10T00:32:52.871Z,0
2016-12-10T00:33:33.664Z,0
2016-12-10T00:34:14.403Z,0
2016-12-10T00:34:55.190Z,0
2016-12-10T00:35:35.947Z,0
2016-12-10T00:36:16.685Z,0
2016-12-10T00:36:57.441Z,0
2016-12-10T00:37:38.214Z,0
2016-12-10T00:38:18.971Z,0
2016-12-10T00:38:59.712Z,0
2016-12-10T00:39:40.490Z,0
2016-12-10T00:40:21.243Z,0
2016-12-10T00:41:01.987Z,0
2016-12-10T00:41:42.789Z,0
2016-12-10T00:42:23.535Z,0
2016-12-10T00:43:04.309Z,0
2016-12-10T00:43:45.085Z,0
2016-12-10T00:44:25.867Z,0
2016-12-10T00:45:06.610Z,0
2016-12-10T00:45:47.379Z,0
2016-12-10T00:46:28.148Z,0
2016-12-10T00:47:08.912Z,0
2016-12-10T00:47:49.690Z,0
2016-12-10T00:48:30.447Z,0
2016-12-10T00:49:11.225Z,0
2016-12-10T00:49:52.017Z,0
2016-12-10T00:50:32.773Z,0
2016-12-10T00:51:13.539Z,0
2016-12-10T00:51:54.303Z,0
2016-12-10T00:52:35.094Z,0
2016-12-10T00:53:15.868Z,0
2016-12-10T00:53:56.622Z,0
2016-12-10T00:54:37.368Z,0
2016-12-10T00:55:18.136Z,0
2016-12-10T00:55:58.893Z,0
2016-12-10T00:56:39.645Z,0
2016-12-10T00:57:20.384Z,0
2016-12-10T00:58:01.157Z,0
2016-12-10T00:58:41.922Z,0
2016-12-10T00:59:22.669Z,0
2016-12-10T01:00:03.417Z,0
2016-12-10T01:00:44.188Z,0
2016-12-10T01:01:24.951Z,0
2016-12-10T01:02:05.726Z,0
2016-12-10T01:02:46.506Z,0
2016-12-10T01:03:27.263Z,0
2016-12-10T01:04:08.000Z,0
2016-12-10T01:04:48.779Z,0
2016-12-10T01:05:29.566Z,0
2016-12-10T01:06:10.316Z,0
2016-12-10T01:06:51.092Z,0
2016-12-10T01:07:31.827Z,0
2016-12-10T01:08:12.579Z,0
2016-12-10T01:08:53.353Z,0
2016-12-10T01:09:34.113Z,0
2016-12-10T01:10:14.877Z,0
2016-12-10T01:10:55.615Z,0
2016-12-10T01:11:36.386Z,0
2016-12-10T01:12:17.136Z,0
2016-12-10T01:12:57.929Z,0
2016-12-10T01:13:38.697Z,0
2016-12-10T01:14:19.466Z,0
2016-12-10T01:15:00.231Z,0
2016-12-10T01:15:40.984Z,0
2016-12-10T01:16:21.719Z,0
2016-12-10T01:17:02.490Z,0
2016-12-10T01:17:43.246Z,0
2016-12-10T01:18:24.013Z,0
2016-12-10T01:19:04.769Z,0
2016-12-10T01:19:45.514Z,0
2016-12-10T01:20:26.273Z,0
2016-12-10T01:21:07.039Z,0
2016-12-10T01:21:47.822Z,0
2016-12-10T01:22:28.573Z,0
2016-12-10T01:23:09.340Z,0
2016-12-10T01:23:50.091Z,0
2016-12-10T01:24:30.833Z,0
2016-12-10T01:25:11.612Z,0
2016-12-10T01:25:52.378Z,0
2016-12-10T01:26:33.158Z,0
2016-12-10T01:27:13.900Z,0
2016-12-10T01:27:54.680Z,0
2016-12-10T01:28:35.425Z,0
2016-12-10T01:29:16.223Z,0
2016-12-10T01:29:56.980Z,0
2016-12-10T01:30:37.733Z,0
2016-12-10T01:31:18.504Z,0
2016-12-10T01:31:59.262Z,0
2016-12-10T01:32:40.009Z,0
2016-12-10T01:33:20.764Z,0
2016-12-10T01:34:01.512Z,0
2016-12-10T01:34:42.280Z,0
2016-12-10T01:35:23.046Z,0
2016-12-10T01:36:03.799Z,0
2016-12-10T01:36:44.535Z,0
2016-12-10T01:37:25.351Z,0
2016-12-10T01:38:06.119Z,0
2016-12-10T01:38:46.874Z,0
2016-12-10T01:39:27.622Z,0
2016-12-10T01:40:08.355Z,0
2016-12-10T01:40:49.122Z,0
2016-12-10T01:41:29.908Z,0
2016-12-10T01:42:10.650Z,0
2016-12-10T01:42:51.416Z,0
2016-12-10T01:43:32.183Z,0
2016-12-10T01:44:12.953Z,0
2016-12-10T01:44:53.707Z,0
2016-12-10T01:45:34.495Z,0
2016-12-10T01:46:15.255Z,0
2016-12-10T01:46:56.001Z,0
2016-12-10T01:47:36.769Z,0
2016-12-10T01:48:17.522Z,0
2016-12-10T01:48:58.308Z,0
2016-12-10T01:49:39.083Z,0
2016-12-10T01:50:19.849Z,0
2016-12-10T01:51:00.584Z,0
2016-12-10T01:51:41.368Z,0
2016-12-10T01:52:22.128Z,0
2016-12-10T01:53:02.887Z,0
2016-12-10T01:53:43.647Z,0
2016-12-10T01:54:24.402Z,0
2016-12-10T01:55:05.177Z,0
2016-12-10T01:55:45.937Z,0
2016-12-10T01:56:26.728Z,0
2016-12-10T01:57:07.472Z,0
2016-12-10T01:57:48.210Z,0
2016-12-10T01:58:28.978Z,0
2016-12-10T01:59:09.751Z,0
2016-12-10T01:59:50.504Z,0
2016-12-10T02:00:31.259Z,0
2016-12-10T02:01:12.018Z,0
2016-12-10T02:01:52.779Z,0
2016-12-10T02:02:33.535Z,0
2016-12-10T02:03:14.294Z,0
2016-12-10T02:03:55.070Z,0
2016-12-10T02:04:35.826Z,0
2016-12-10T02:05:16.628Z,0
2016-12-10T02:05:57.398Z,0
2016-12-10T02:06:38.174Z,0
2016-12-10T02:07:18.926Z,0
2016-12-10T02:07:59.661Z,0
2016-12-10T02:08:40.426Z,0
2016-12-10T02:09:21.191Z,0
2016-12-10T02:10:01.931Z,0
2016-12-10T02:10:42.670Z,0
2016-12-10T02:11:23.431Z,0
2016-12-10T02:12:04.191Z,0
2016-12-10T02:12:44.959Z,0
2016-12-10T02:13:25.719Z,0
2016-12-10T02:14:06.475Z,0
2016-12-10T02:14:47.233Z,0
2016-12-10T02:15:27.994Z,0
2016-12-10T02:16:08.784Z,0
2016-12-10T02:16:49.543Z,0
2016-12-10T02:17:30.314Z,0
2016-12-10T02:18:11.063Z,0
2016-12-10T02:18:51.801Z,0
2016-12-10T02:19:32.568Z,0
2016-12-10T02:20:13.341Z,0
2016-12-10T02:20:54.094Z,0
2016-12-10T02:21:34.823Z,0
2016-12-10T02:22:15.594Z,0
2016-12-10T02:22:56.357Z,0
2016-12-10T02:23:37.111Z,0
2016-12-10T02:24:17.882Z,0
2016-12-10T02:24:58.670Z,0
2016-12-10T02:25:39.426Z,0
2016-12-10T02:26:20.196Z,0
2016-12-10T02:27:00.940Z,0
2016-12-10T02:27:41.711Z,0
2016-12-10T02:28:22.463Z,0
2016-12-10T02:29:03.245Z,0
2016-12-10T02:29:44.033Z,0
2016-12-10T02:30:24.773Z,0
2016-12-10T02:31:05.534Z,0
2016-12-10T02:31:46.319Z,0
2016-12-10T02:32:27.082Z,0
2016-12-10T02:33:07.842Z,0
2016-12-10T02:33:48.606Z,0
2016-12-10T02:34:29.362Z,0
2016-12-10T02:35:10.120Z,0
2016-12-10T02:35:50.880Z,0
2016-12-10T02:36:31.658Z,0
2016-12-10T02:37:12.397Z,0
2016-12-10T02:37:53.154Z,0
2016-12-10T02:38:33.910Z,0
2016-12-10T02:39:14.646Z,0
2016-12-10T02:39:55.430Z,0
2016-12-10T02:40:36.187Z,0
2016-12-10T02:41:16.954Z,0
2016-12-10T02:41:57.725Z,0
2016-12-10T02:42:38.475Z,0
2016-12-10T02:43:19.244Z,0
2016-12-10T02:44:00.058Z,0
2016-12-10T02:44:40.808Z,0
2016-12-10T02:45:21.571Z,0
2016-12-10T02:46:02.382Z,0
2016-12-10T02:46:43.139Z,0
2016-12-10T02:47:23.903Z,0
2016-12-10T02:48:04.660Z,0
2016-12-10T02:48:45.425Z,0
2016-12-10T02:49:26.177Z,0
2016-12-10T02:50:06.958Z,0
2016-12-10T02:50:47.709Z,0
2016-12-10T02:51:28.485Z,0
2016-12-10T02:52:09.260Z,0
2016-12-10T02:52:50.028Z,0
2016-12-10T02:53:30.790Z,0
2016-12-10T02:54:11.530Z,0
2016-12-10T02:54:52.305Z,0
2016-12-10T02:55:33.107Z,0
2016-12-10T02:56:13.865Z,0
2016-12-10T02:56:54.653Z,0
2016-12-10T02:57:35.403Z,0
2016-12-10T02:58:16.157Z,0
2016-12-10T02:58:56.949Z,0
2016-12-10T02:59:37.709Z,0
2016-12-10T03:00:18.459Z,0
2016-12-10T03:00:59.242Z,0
2016-12-10T03:01:39.995Z,0
2016-12-10T03:02:20.742Z,0
2016-12-10T03:03:01.530Z,0
2016-12-10T03:03:42.285Z,0
2016-12-10T03:04:23.056Z,0
2016-12-10T03:05:03.831Z,0
2016-12-10T03:05:44.617Z,0
2016-12-10T03:06:25.356Z,0
2016-12-10T03:07:06.142Z,0
2016-12-10T03:07:46.895Z,0
2016-12-10T03:08:27.642Z,0
2016-12-10T03:09:08.406Z,0
2016-12-10T03:09:49.159Z,0
2016-12-10T03:10:29.913Z,0
2016-12-10T03:11:10.653Z,0
2016-12-10T03:11:51.423Z,0
2016-12-10T03:12:32.184Z,0
2016-12-10T03:13:12.940Z,0
2016-12-10T03:13:53.724Z,0
2016-12-10T03:14:34.481Z,0
2016-12-10T03:15:15.228Z,0
2016-12-10T03:15:56.007Z,0
2016-12-10T03:16:36.802Z,0
2016-12-10T03:17:17.559Z,0
2016-12-10T03:17:58.318Z,0
2016-12-10T03:18:39.057Z,0
2016-12-10T03:19:19.830Z,0
2016-12-10T03:20:00.593Z,0
2016-12-10T03:20:41.350Z,0
2016-12-10T03:21:22.093Z,0
2016-12-10T03:22:02.856Z,0
2016-12-10T03:22:43.657Z,0
2016-12-10T03:23:24.423Z,0
2016-12-10T03:24:05.196Z,0
2016-12-10T03:24:45.948Z,0
2016-12-10T03:25:26.700Z,0
2016-12-10T03:26:07.471Z,0
2016-12-10T03:26:48.253Z,0
2016-12-10T03:27:29.029Z,0
2016-12-10T03:28:09.797Z,0
2016-12-10T03:28:50.552Z,0
2016-12-10T03:29:31.319Z,0
2016-12-10T03:30:12.106Z,0
2016-12-10T03:30:52.868Z,0
2016-12-10T03:31:33.615Z,0
2016-12-10T03:32:14.343Z,0
2016-12-10T03:32:55.120Z,0
2016-12-10T03:33:35.906Z,0
2016-12-10T03:34:16.656Z,0
2016-12-10T03:34:57.431Z,0
2016-12-10T03:35:38.208Z,0
2016-12-10T03:36:18.974Z,0
2016-12-10T03:36:59.717Z,0
2016-12-10T03:37:40.491Z,0
2016-12-10T03:38:21.275Z,0
2016-12-10T03:39:02.022Z,0
2016-12-10T03:39:42.805Z,0
2016-12-10T03:40:23.572Z,0
2016-12-10T03:41:04.353Z,0
2016-12-10T03:41:45.093Z,0
2016-12-10T03:42:25.878Z,0
2016-12-10T03:43:06.642Z,0
2016-12-10T03:43:47.403Z,0
2016-12-10T03:44:28.164Z,0
2016-12-10T03:45:08.907Z,0
2016-12-10T03:45:49.651Z,0
2016-12-10T03:46:30.427Z,0
2016-12-10T03:47:11.196Z,0
2016-12-10T03:47:51.961Z,0
2016-12-10T03:48:32.721Z,0
2016-12-10T03:49:13.500Z,0
2016-12-10T03:49:54.262Z,0
2016-12-10T03:50:35.041Z,0
2016-12-10T03:51:15.792Z,0
2016-12-10T03:51:56.561Z,0
2016-12-10T03:52:37.319Z,0
2016-12-10T03:53:18.087Z,0
2016-12-10T03:53:58.826Z,0
2016-12-10T03:54:39.600Z,0
2016-12-10T03:55:20.363Z,0
2016-12-10T03:56:01.115Z,0
2016-12-10T03:56:41.904Z,0
2016-12-10T03:57:22.638Z,0
2016-12-10T03:58:03.401Z,0
2016-12-10T03:58:44.176Z,0
2016-12-10T03:59:24.945Z,0
2016-12-10T04:00:05.687Z,0
2016-12-10T04:00:46.458Z,0
2016-12-10T04:01:27.225Z,0
2016-12-10T04:02:07.993Z,0
2016-12-10T04:02:48.771Z,0
2016-12-10T04:03:29.535Z,0
2016-12-10T04:04:10.296Z,0
2016-12-10T04:04:51.055Z,0
2016-12-10T04:05:31.858Z,0
2016-12-10T04:06:12.634Z,0
2016-12-10T04:06:53.421Z,0
2016-12-10T04:07:34.182Z,0
2016-12-10T04:08:14.956Z,0
2016-12-10T04:08:55.709Z,0
2016-12-10T04:09:36.475Z,0
2016-12-10T04:10:17.237Z,0
2016-12-10T04:10:57.992Z,0
2016-12-10T04:11:38.735Z,0
2016-12-10T04:12:19.517Z,0
2016-12-10T04:13:00.304Z,0
2016-12-10T04:13:41.041Z,0
2016-12-10T04:14:21.810Z,0
2016-12-10T04:15:02.571Z,0
2016-12-10T04:15:43.331Z,0
2016-12-10T04:16:24.085Z,0
2016-12-10T04:17:04.879Z,0
2016-12-10T04:17:45.631Z,0
2016-12-10T04:18:26.377Z,0
2016-12-10T04:19:07.145Z,0
2016-12-10T04:19:47.921Z,0
2016-12-10T04:20:28.689Z,0
2016-12-10T04:21:09.443Z,0
2016-12-10T04:21:50.234Z,0
2016-12-10T04:22:30.999Z,0
2016-12-10T04:23:11.780Z,0
2016-12-10T04:23:52.535Z,0
2016-12-10T04:24:33.293Z,0
2016-12-10T04:25:14.061Z,0
2016-12-10T04:25:54.833Z,0
2016-12-10T04:26:35.589Z,0
2016-12-10T04:27:16.372Z,0
2016-12-10T04:27:57.132Z,0
2016-12-10T04:28:37.919Z,0
2016-12-10T04:29:18.689Z,0
2016-12-10T04:29:59.466Z,0
2016-12-10T04:30:40.208Z,0
2016-12-10T04:31:20.965Z,0
2016-12-10T04:32:01.736Z,0
2016-12-10T04:32:42.511Z,0
2016-12-10T04:33:23.290Z,0
2016-12-10T04:34:04.065Z,0
2016-12-10T04:34:44.805Z,0
2016-12-10T04:35:25.561Z,0
2016-12-10T04:36:06.319Z,0
2016-12-10T04:36:47.077Z,0
2016-12-10T04:37:27.820Z,0
2016-12-10T04:38:08.583Z,0
2016-12-10T04:38:49.349Z,0
2016-12-10T04:39:30.120Z,0
2016-12-10T04:40:10.893Z,0
2016-12-10T04:40:51.635Z,0
2016-12-10T04:41:32.385Z,0
2016-12-10T04:42:13.169Z,0
2016-12-10T04:42:53.916Z,0
2016-12-10T04:43:34.688Z,0
2016-12-10T04:44:15.461Z,0
2016-12-10T04:44:56.234Z,0
2016-12-10T04:45:36.981Z,0
2016-12-10T04:46:17.739Z,0
2016-12-10T04:46:58.501Z,0
2016-12-10T04:47:39.301Z,0
2016-12-10T04:48:20.066Z,0
2016-12-10T04:49:00.818Z,0
2016-12-10T04:49:41.581Z,0
2016-12-10T04:50:22.334Z,0
2016-12-10T04:51:03.095Z,0
2016-12-10T04:51:43.845Z,0
2016-12-10T04:52:24.610Z,0
2016-12-10T04:53:05.357Z,0
2016-12-10T04:53:46.088Z,0
2016-12-10T04:54:26.867Z,0
2016-12-10T04:55:07.623Z,0
2016-12-10T04:55:48.387Z,0
2016-12-10T04:56:29.151Z,0
2016-12-10T04:57:09.888Z,0
2016-12-10T04:57:50.641Z,0
2016-12-10T04:58:31.411Z,0
2016-12-10T04:59:12.168Z,0
2016-12-10T04:59:52.925Z,0
2016-12-10T05:00:33.681Z,0
2016-12-10T05:01:14.437Z,0
2016-12-10T05:01:55.191Z,0
2016-12-10T05:02:35.934Z,0
2016-12-10T05:03:16.695Z,0
2016-12-10T05:03:57.445Z,0
2016-12-10T05:04:38.217Z,0
2016-12-10T05:05:18.964Z,0
2016-12-10T05:05:59.715Z,0
2016-12-10T05:06:40.490Z,0
2016-12-10T05:07:21.236Z,0
2016-12-10T05:08:02.004Z,0
2016-12-10T05:08:42.769Z,0
2016-12-10T05:09:23.537Z,0
2016-12-10T05:10:04.281Z,0
2016-12-10T05:10:45.067Z,0
2016-12-10T05:11:25.845Z,0
2016-12-10T05:12:06.613Z,0
2016-12-10T05:12:47.391Z,0
2016-12-10T05:13:28.133Z,0
2016-12-10T05:14:08.901Z,0
2016-12-10T05:14:49.665Z,0
2016-12-10T05:15:30.442Z,0
2016-12-10T05:16:11.203Z,0
2016-12-10T05:16:51.973Z,0
2016-12-10T05:17:32.715Z,0
2016-12-10T05:18:13.471Z,0
2016-12-10T05:18:54.262Z,0
2016-12-10T05:19:35.048Z,0
2016-12-10T05:20:15.808Z,0
2016-12-10T05:20:56.565Z,0
2016-12-10T05:21:37.335Z,0
2016-12-10T05:22:18.090Z,0
2016-12-10T05:22:58.868Z,0
2016-12-10T05:23:39.633Z,0
2016-12-10T05:24:20.368Z,0
2016-12-10T05:25:01.127Z,0
2016-12-10T05:25:41.879Z,0
2016-12-10T05:26:22.639Z,0
2016-12-10T05:27:03.406Z,0
2016-12-10T05:27:44.161Z,0
2016-12-10T05:28:24.902Z,0
2016-12-10T05:29:05.657Z,0
2016-12-10T05:29:46.420Z,0
2016-12-10T05:30:27.192Z,0
2016-12-10T05:31:07.968Z,0
2016-12-10T05:31:48.720Z,0
2016-12-10T05:32:29.488Z,0
2016-12-10T05:33:10.282Z,0
2016-12-10T05:33:51.053Z,0
2016-12-10T05:34:31.809Z,0
2016-12-10T05:35:12.568Z,0
2016-12-10T05:35:53.337Z,0
2016-12-10T05:36:34.073Z,0
2016-12-10T05:37:14.819Z,0
2016-12-10T05:37:55.590Z,0
2016-12-10T05:38:36.351Z,0
2016-12-10T05:39:17.120Z,0
2016-12-10T05:39:57.884Z,0
2016-12-10T05:40:38.634Z,0
2016-12-10T05:41:19.402Z,0
2016-12-10T05:42:00.174Z,0
2016-12-10T05:42:40.935Z,0
2016-12-10T05:43:21.689Z,0
2016-12-10T05:44:02.431Z,0
2016-12-10T05:44:43.208Z,0
2016-12-10T05:45:23.950Z,0
2016-12-10T05:46:04.713Z,0
2016-12-10T05:46:45.498Z,0
2016-12-10T05:47:26.251Z,0
2016-12-10T05:48:07.027Z,0
2016-12-10T05:48:47.791Z,0
2016-12-10T05:49:28.539Z,0
2016-12-10T05:50:09.276Z,0
2016-12-10T05:50:50.036Z,0
2016-12-10T05:51:30.812Z,0
2016-12-10T05:52:11.578Z,0
2016-12-10T05:52:52.334Z,0
2016-12-10T05:53:33.091Z,0
2016-12-10T05:54:13.862Z,0
2016-12-10T05:54:54.608Z,0
2016-12-10T05:55:35.368Z,0
2016-12-10T05:56:16.152Z,0
2016-12-10T05:56:56.909Z,0
2016-12-10T05:57:37.693Z,0
2016-12-10T05:58:18.449Z,0
2016-12-10T05:58:59.223Z,0
2016-12-10T05:59:39.993Z,0
2016-12-10T06:00:20.766Z,0
2016-12-10T06:01:01.551Z,0
2016-12-10T06:01:42.304Z,0
2016-12-10T06:02:23.059Z,0
2016-12-10T06:03:03.816Z,0
2016-12-10T06:03:44.592Z,0
2016-12-10T06:04:25.351Z,0
2016-12-10T06:05:06.113Z,0
2016-12-10T06:05:46.857Z,0
2016-12-10T06:06:27.609Z,0
2016-12-10T06:07:08.378Z,0
2016-12-10T06:07:49.160Z,0
2016-12-10T06:08:29.937Z,0
2016-12-10T06:09:10.695Z,0
2016-12-10T06:09:51.474Z,0
2016-12-10T06:10:32.236Z,0
2016-12-10T06:11:13.022Z,0
2016-12-10T06:11:53.765Z,0
2016-12-10T06:12:34.541Z,0
2016-12-10T06:13:15.299Z,0
2016-12-10T06:13:56.055Z,0
2016-12-10T06:14:36.840Z,0
2016-12-10T06:15:17.597Z,0
2016-12-10T06:15:58.331Z,0
2016-12-10T06:16:39.090Z,0
2016-12-10T06:17:19.845Z,0
2016-12-10T06:18:00.615Z,0
2016-12-10T06:18:41.370Z,0
2016-12-10T06:19:22.137Z,0
2016-12-10T06:20:02.890Z,0
2016-12-10T06:20:43.652Z,0
2016-12-10T06:21:24.427Z,0
2016-12-10T06:22:05.167Z,0
2016-12-10T06:22:45.910Z,0
2016-12-10T06:23:26.687Z,0
2016-12-10T06:24:07.429Z,0
2016-12-10T06:24:48.231Z,0
2016-12-10T06:25:28.989Z,0
2016-12-10T06:26:09.740Z,0
2016-12-10T06:26:50.497Z,0
2016-12-10T06:27:31.256Z,0
2016-12-10T06:28:12.027Z,0
2016-12-10T06:28:52.809Z,0
2016-12-10T06:29:33.557Z,0
2016-12-10T06:30:14.362Z,0
2016-12-10T06:30:55.146Z,0
2016-12-10T06:31:35.921Z,0
2016-12-10T06:32:16.689Z,0
2016-12-10T06:32:57.450Z,0
2016-12-10T06:33:38.206Z,0
2016-12-10T06:34:18.982Z,0
2016-12-10T06:34:59.718Z,0
2016-12-10T06:35:40.505Z,0
2016-12-10T06:36:21.249Z,0
2016-12-10T06:37:02.013Z,0
2016-12-10T06:37:42.757Z,0
2016-12-10T06:38:23.530Z,0
2016-12-10T06:39:04.298Z,0
2016-12-10T06:39:45.090Z,0
2016-12-10T06:40:25.841Z,0
2016-12-10T06:41:06.650Z,0
2016-12-10T06:41:47.388Z,0
2016-12-10T06:42:28.150Z,0
2016-12-10T06:43:08.907Z,0
2016-12-10T06:43:49.654Z,0
2016-12-10T06:44:30.427Z,0
2016-12-10T06:45:11.172Z,0
2016-12-10T06:45:51.933Z,0
2016-12-10T06:46:32.695Z,0
2016-12-10T06:47:13.432Z,0
2016-12-10T06:47:54.217Z,0
2016-12-10T06:48:34.983Z,0
2016-12-10T06:49:15.736Z,0
2016-12-10T06:49:56.480Z,0
2016-12-10T06:50:37.287Z,0
2016-12-10T06:51:18.032Z,0
2016-12-10T06:51:58.791Z,0
2016-12-10T06:52:39.549Z,0
2016-12-10T06:53:20.296Z,0
2016-12-10T06:54:01.073Z,0
2016-12-10T06:54:41.842Z,0
2016-12-10T06:55:22.598Z,0
2016-12-10T06:56:03.342Z,0
2016-12-10T06:56:44.096Z,0
2016-12-10T06:57:24.838Z,0
2016-12-10T06:58:05.637Z,0
2016-12-10T06:58:46.419Z,0
2016-12-10T06:59:27.169Z,0
2016-12-10T07:00:07.931Z,0
2016-12-10T07:00:48.696Z,0
2016-12-10T07:01:29.490Z,0
2016-12-10T07:02:10.270Z,0
2016-12-10T07:02:51.040Z,4
2016-12-10T07:03:31.804Z,4
2016-12-10T07:04:12.574Z,4
2016-12-10T07:04:53.336Z,0
2016-12-10T07:05:34.087Z,0
2016-12-10T07:06:14.840Z,0
2016-12-10T07:06:55.613Z,0
2016-12-10T07:07:36.372Z,0
2016-12-10T07:08:17.135Z,0
2016-12-10T07:08:57.898Z,0
2016-12-10T07:09:38.662Z,0
2016-12-10T07:10:19.435Z,4
2016-12-10T07:11:00.169Z,4
2016-12-10T07:11:40.955Z,4
2016-12-10T07:12:21.712Z,4
2016-12-10T07:13:02.475Z,4
2016-12-10T07:13:43.246Z,4
2016-12-10T07:14:23.999Z,4
2016-12-10T07:15:04.760Z,4
2016-12-10T07:15:45.540Z,0
2016-12-10T07:16:26.287Z,0
2016-12-10T07:17:07.023Z,4
2016-12-10T07:17:47.833Z,4
2016-12-10T07:18:28.588Z,4
2016-12-10T07:19:09.354Z,4
2016-12-10T07:19:50.115Z,4
2016-12-10T07:20:30.892Z,4
2016-12-10T07:21:11.648Z,4
2016-12-10T07:21:52.409Z,4
2016-12-10T07:22:33.170Z,8
2016-12-10T07:23:13.946Z,4
2016-12-10T07:23:54.692Z,4
2016-12-10T07:24:35.495Z,4
2016-12-10T07:25:16.249Z,4
2016-12-10T07:25:56.999Z,8
2016-12-10T07:26:37.772Z,4
2016-12-10T07:27:20.310Z,4
2016-12-10T07:28:01.079Z,8
2016-12-10T07:28:41.832Z,8
2016-12-10T07:29:22.600Z,8
2016-12-10T07:30:03.364Z,12
2016-12-10T07:30:44.171Z,8
2016-12-10T07:31:24.927Z,12
2016-12-10T07:32:05.700Z,12
2016-12-10T07:32:46.457Z,12
2016-12-10T07:33:27.236Z,12
2016-12-10T07:34:08.023Z,12
2016-12-10T07:34:48.787Z,12
2016-12-10T07:35:29.556Z,16
2016-12-10T07:36:10.314Z,12
2016-12-10T07:36:51.065Z,16
2016-12-10T07:37:31.833Z,12
2016-12-10T07:38:12.596Z,16
2016-12-10T07:38:53.387Z,12
2016-12-10T07:39:34.146Z,16
2016-12-10T07:40:14.911Z,16
2016-12-10T07:40:55.694Z,16
2016-12-10T07:41:36.434Z,16
2016-12-10T07:42:17.194Z,20
2016-12-10T07:42:57.954Z,16
2016-12-10T07:43:38.707Z,20
2016-12-10T07:44:19.471Z,20
2016-12-10T07:45:00.236Z,20
2016-12-10T07:45:40.990Z,20
2016-12-10T07:46:21.747Z,20
2016-12-10T07:47:02.497Z,20
2016-12-10T07:47:43.256Z,20
2016-12-10T07:48:24.007Z,24
2016-12-10T07:49:04.762Z,20
2016-12-10T07:49:45.526Z,20
2016-12-10T07:50:26.281Z,24
2016-12-10T07:51:07.037Z,24
2016-12-10T07:51:47.778Z,24
2016-12-10T07:52:28.517Z,24
2016-12-10T07:53:09.282Z,24
2016-12-10T07:53:50.027Z,28
2016-12-10T07:54:30.780Z,24
2016-12-10T07:55:11.540Z,24
2016-12-10T07:55:52.291Z,28
2016-12-10T07:56:33.047Z,28
2016-12-10T07:57:13.789Z,24
2016-12-10T07:57:54.564Z,28
2016-12-10T07:58:35.350Z,28
2016-12-10T07:59:16.110Z,28
2016-12-10T07:59:56.875Z,32
2016-12-10T08:00:37.652Z,28
2016-12-10T08:01:18.401Z,28
2016-12-10T08:01:59.157Z,28
2016-12-10T08:02:39.939Z,32
2016-12-10T08:03:20.708Z,32
2016-12-10T08:04:01.455Z,28
2016-12-10T08:04:42.223Z,28
2016-12-10T08:05:22.996Z,32
2016-12-10T08:06:03.778Z,32
2016-12-10T08:06:44.530Z,32
2016-12-10T08:07:25.278Z,36
2016-12-10T08:08:06.013Z,32
2016-12-10T08:08:47.650Z,32
2016-12-10T08:09:28.437Z,32
2016-12-10T08:10:09.222Z,36
2016-12-10T08:10:49.957Z,36
2016-12-10T08:11:30.794Z,32
2016-12-10T08:12:11.554Z,32
2016-12-10T08:12:52.299Z,36
2016-12-10T08:13:33.099Z,36
2016-12-10T08:14:13.866Z,36
2016-12-10T08:14:54.644Z,36
2016-12-10T08:15:36.227Z,36
2016-12-10T08:16:16.147Z,36
2016-12-10T08:16:56.880Z,36
2016-12-10T08:17:37.641Z,36
2016-12-10T08:18:18.392Z,36
2016-12-10T08:18:59.159Z,40
2016-12-10T08:19:39.934Z,36
2016-12-10T08:20:20.679Z,36
2016-12-10T08:21:01.442Z,36
2016-12-10T08:21:42.201Z,40
2016-12-10T08:22:22.960Z,40
2016-12-10T08:23:03.689Z,40
2016-12-10T08:23:44.469Z,36
2016-12-10T08:24:25.211Z,40
2016-12-10T08:25:05.997Z,40
2016-12-10T08:25:46.779Z,40
2016-12-10T08:26:27.556Z,40
2016-12-10T08:27:08.321Z,40
2016-12-10T08:27:49.076Z,40
2016-12-10T08:28:29.839Z,44
2016-12-10T08:29:10.608Z,40
2016-12-10T08:29:51.341Z,40
2016-12-10T08:30:32.100Z,40
2016-12-10T08:31:12.874Z,44
2016-12-10T08:31:53.629Z,44
2016-12-10T08:32:34.390Z,44
2016-12-10T08:33:15.135Z,44
2016-12-10T08:33:55.902Z,44
2016-12-10T08:34:36.670Z,40
2016-12-10T08:35:17.453Z,44
2016-12-10T08:35:58.222Z,44
2016-12-10T08:36:38.959Z,44
2016-12-10T08:37:19.743Z,44
2016-12-10T08:38:00.516Z,44
2016-12-10T08:38:41.263Z,44
2016-12-10T08:39:22.009Z,44
2016-12-10T08:40:02.771Z,44
2016-12-10T08:40:43.518Z,44
2016-12-10T08:41:24.280Z,44
2016-12-10T08:42:05.051Z,44
2016-12-10T08:42:45.830Z,48
2016-12-10T08:43:26.611Z,44
2016-12-10T08:44:07.351Z,48
2016-12-10T08:44:48.097Z,48
2016-12-10T08:45:28.858Z,48
2016-12-10T08:46:09.610Z,44
2016-12-10T08:46:50.363Z,44
2016-12-10T08:47:31.128Z,44
2016-12-10T08:48:11.914Z,48
2016-12-10T08:48:52.689Z,48
2016-12-10T08:49:33.433Z,48
2016-12-10T08:50:14.208Z,48
2016-12-10T08:50:54.960Z,48
2016-12-10T08:51:35.740Z,48
2016-12-10T08:52:16.517Z,48
2016-12-10T08:52:57.249Z,48
2016-12-10T08:53:38.006Z,48
2016-12-10T08:54:18.777Z,48
2016-12-10T08:54:59.561Z,48
2016-12-10T08:55:40.316Z,48
2016-12-10T08:56:21.098Z,48
2016-12-10T08:57:01.858Z,48
2016-12-10T08:57:42.612Z,48
2016-12-10T08:58:23.400Z,48
2016-12-10T08:59:04.208Z,48
2016-12-10T08:59:44.948Z,48
2016-12-10T09:00:25.722Z,48
2016-12-10T09:01:06.478Z,52
2016-12-10T09:01:47.243Z,52
2016-12-10T09:02:28.004Z,48
2016-12-10T09:03:08.748Z,48
2016-12-10T09:03:49.526Z,48
2016-12-10T09:04:30.298Z,48
2016-12-10T09:05:11.044Z,52
2016-12-10T09:05:51.823Z,48
2016-12-10T09:06:32.578Z,48
2016-12-10T09:07:13.361Z,44
2016-12-10T09:07:54.141Z,32
2016-12-10T09:08:34.902Z,32
2016-12-10T09:09:15.653Z,32
2016-12-10T09:09:56.407Z,32
2016-12-10T09:10:37.169Z,32
2016-12-10T09:11:17.951Z,32
2016-12-10T09:11:58.711Z,32
2016-12-10T09:12:39.488Z,32
2016-12-10T09:13:20.261Z,32
2016-12-10T09:14:01.022Z,36
2016-12-10T09:14:41.794Z,36
2016-12-10T09:15:23.260Z,44
2016-12-10T09:16:03.344Z,48
2016-12-10T09:16:44.125Z,52
2016-12-10T09:17:24.897Z,52
2016-12-10T09:18:05.645Z,52
2016-12-10T09:18:46.410Z,52
2016-12-10T09:19:27.191Z,52
2016-12-10T09:20:07.923Z,52
2016-12-10T09:20:48.694Z,52
2016-12-10T09:21:30.263Z,52
2016-12-10T09:22:11.086Z,52
2016-12-10T09:22:51.876Z,52
2016-12-10T09:23:32.631Z,52
2016-12-10T09:24:13.393Z,52
2016-12-10T09:24:54.167Z,52
2016-12-10T09:25:34.935Z,52
2016-12-10T09:26:15.692Z,52
2016-12-10T09:26:56.467Z,56
2016-12-10T09:27:37.234Z,52
2016-12-10T09:28:17.987Z,52
2016-12-10T09:28:58.782Z,52
2016-12-10T09:29:39.520Z,52
2016-12-10T09:30:20.273Z,52
2016-12-10T09:31:01.085Z,52
2016-12-10T09:31:41.842Z,52
2016-12-10T09:32:22.614Z,52
2016-12-10T09:33:03.350Z,52
2016-12-10T09:33:44.116Z,48
2016-12-10T09:34:24.899Z,52
2016-12-10T09:35:05.679Z,52
2016-12-10T09:35:46.447Z,52
2016-12-10T09:36:27.196Z,52
2016-12-10T09:37:07.955Z,52
2016-12-10T09:37:48.733Z,52
2016-12-10T09:38:29.475Z,52
2016-12-10T09:39:10.232Z,52
2016-12-10T09:39:51.766Z,52
2016-12-10T09:40:31.764Z,52
2016-12-10T09:41:12.530Z,52
2016-12-10T09:41:53.272Z,52
2016-12-10T09:42:34.031Z,52
2016-12-10T09:43:14.793Z,52
2016-12-10T09:43:55.558Z,52
2016-12-10T09:44:36.333Z,52
2016-12-10T09:45:17.107Z,52
2016-12-10T09:45:57.854Z,52
2016-12-10T09:46:38.613Z,48
2016-12-10T09:47:19.410Z,48
2016-12-10T09:48:00.161Z,48
2016-12-10T09:48:40.933Z,48
2016-12-10T09:49:21.709Z,52
2016-12-10T09:50:02.492Z,52
2016-12-10T09:50:43.244Z,48
2016-12-10T09:51:24.025Z,48
2016-12-10T09:52:04.781Z,48
2016-12-10T09:52:45.539Z,48
2016-12-10T09:53:26.300Z,52
2016-12-10T09:54:07.068Z,48
2016-12-10T09:54:47.844Z,52
2016-12-10T09:55:28.625Z,48
2016-12-10T09:56:09.387Z,48
2016-12-10T09:56:50.137Z,48
2016-12-10T09:57:30.892Z,48